<?xml version="1.0" encoding="UTF-8" standalone="no" ?>
<gpx xmlns="http://www.topografix.com/GPX/1/1" xmlns:xsi="http://www.w3.org/2001/XMLSchema-instance" xsi:schemaLocation="http://www.topografix.com/GPX/1/1 http://www.topografix.com/GPX/1/1/gpx.xsd" version="1.1" creator="VisuGPX - https://www.visugpx.com">
  <metadata>
    <name>Course à pied en soirée</name>
  </metadata>
  <trk>
    <name><![CDATA[Course à pied en soirée_1]]></name>
    <trkseg>
      <trkpt lat="46.76929" lon="-0.85967">
        <ele>133.2</ele>
        <time>2023-10-23T17:16:06Z</time>
      </trkpt>
      <trkpt lat="46.7693" lon="-0.85965">
        <ele>133.1</ele>
        <time>2023-10-23T17:16:07Z</time>
      </trkpt>
      <trkpt lat="46.76944" lon="-0.85946">
        <ele>132.3</ele>
        <time>2023-10-23T17:16:13Z</time>
      </trkpt>
      <trkpt lat="46.76958" lon="-0.85924">
        <ele>132.6</ele>
        <time>2023-10-23T17:16:20Z</time>
      </trkpt>
      <trkpt lat="46.76973" lon="-0.85908">
        <ele>133.6</ele>
        <time>2023-10-23T17:16:27Z</time>
      </trkpt>
      <trkpt lat="46.76988" lon="-0.85892">
        <ele>135</ele>
        <time>2023-10-23T17:16:33Z</time>
      </trkpt>
      <trkpt lat="46.77003" lon="-0.85876">
        <ele>136.5</ele>
        <time>2023-10-23T17:16:40Z</time>
      </trkpt>
      <trkpt lat="46.77021" lon="-0.85874">
        <ele>137.8</ele>
        <time>2023-10-23T17:16:47Z</time>
      </trkpt>
      <trkpt lat="46.77036" lon="-0.85893">
        <ele>138.7</ele>
        <time>2023-10-23T17:16:54Z</time>
      </trkpt>
      <trkpt lat="46.77043" lon="-0.85919">
        <ele>139</ele>
        <time>2023-10-23T17:17:00Z</time>
      </trkpt>
      <trkpt lat="46.77048" lon="-0.85945">
        <ele>138.9</ele>
        <time>2023-10-23T17:17:06Z</time>
      </trkpt>
      <trkpt lat="46.77053" lon="-0.8597">
        <ele>138.7</ele>
        <time>2023-10-23T17:17:12Z</time>
      </trkpt>
      <trkpt lat="46.77057" lon="-0.85997">
        <ele>138.2</ele>
        <time>2023-10-23T17:17:18Z</time>
      </trkpt>
      <trkpt lat="46.77061" lon="-0.86025">
        <ele>137.5</ele>
        <time>2023-10-23T17:17:24Z</time>
      </trkpt>
      <trkpt lat="46.77068" lon="-0.8605">
        <ele>136.6</ele>
        <time>2023-10-23T17:17:30Z</time>
      </trkpt>
      <trkpt lat="46.77077" lon="-0.86078">
        <ele>135.5</ele>
        <time>2023-10-23T17:17:37Z</time>
      </trkpt>
      <trkpt lat="46.77087" lon="-0.861">
        <ele>134.7</ele>
        <time>2023-10-23T17:17:43Z</time>
      </trkpt>
      <trkpt lat="46.77098" lon="-0.86123">
        <ele>133.8</ele>
        <time>2023-10-23T17:17:49Z</time>
      </trkpt>
      <trkpt lat="46.7711" lon="-0.86144">
        <ele>132.9</ele>
        <time>2023-10-23T17:17:55Z</time>
      </trkpt>
      <trkpt lat="46.77122" lon="-0.86165">
        <ele>132</ele>
        <time>2023-10-23T17:18:01Z</time>
      </trkpt>
      <trkpt lat="46.77135" lon="-0.86187">
        <ele>131.4</ele>
        <time>2023-10-23T17:18:07Z</time>
      </trkpt>
      <trkpt lat="46.77147" lon="-0.8621">
        <ele>130.8</ele>
        <time>2023-10-23T17:18:13Z</time>
      </trkpt>
      <trkpt lat="46.77159" lon="-0.86235">
        <ele>130.2</ele>
        <time>2023-10-23T17:18:19Z</time>
      </trkpt>
      <trkpt lat="46.77165" lon="-0.86264">
        <ele>129.8</ele>
        <time>2023-10-23T17:18:25Z</time>
      </trkpt>
      <trkpt lat="46.77166" lon="-0.8629">
        <ele>129.4</ele>
        <time>2023-10-23T17:18:30Z</time>
      </trkpt>
      <trkpt lat="46.77162" lon="-0.86317">
        <ele>128.9</ele>
        <time>2023-10-23T17:18:35Z</time>
      </trkpt>
      <trkpt lat="46.77157" lon="-0.86344">
        <ele>127.9</ele>
        <time>2023-10-23T17:18:40Z</time>
      </trkpt>
      <trkpt lat="46.77152" lon="-0.8637">
        <ele>126.8</ele>
        <time>2023-10-23T17:18:45Z</time>
      </trkpt>
      <trkpt lat="46.77149" lon="-0.86396">
        <ele>125.6</ele>
        <time>2023-10-23T17:18:50Z</time>
      </trkpt>
      <trkpt lat="46.77145" lon="-0.86422">
        <ele>124.3</ele>
        <time>2023-10-23T17:18:55Z</time>
      </trkpt>
      <trkpt lat="46.77141" lon="-0.86452">
        <ele>122.9</ele>
        <time>2023-10-23T17:19:01Z</time>
      </trkpt>
      <trkpt lat="46.77139" lon="-0.86478">
        <ele>121.6</ele>
        <time>2023-10-23T17:19:06Z</time>
      </trkpt>
      <trkpt lat="46.77139" lon="-0.86506">
        <ele>120.4</ele>
        <time>2023-10-23T17:19:11Z</time>
      </trkpt>
      <trkpt lat="46.7714" lon="-0.86533">
        <ele>119.3</ele>
        <time>2023-10-23T17:19:16Z</time>
      </trkpt>
      <trkpt lat="46.77142" lon="-0.86564">
        <ele>118.2</ele>
        <time>2023-10-23T17:19:22Z</time>
      </trkpt>
      <trkpt lat="46.77144" lon="-0.86591">
        <ele>117.3</ele>
        <time>2023-10-23T17:19:27Z</time>
      </trkpt>
      <trkpt lat="46.77147" lon="-0.86619">
        <ele>116.4</ele>
        <time>2023-10-23T17:19:32Z</time>
      </trkpt>
      <trkpt lat="46.77161" lon="-0.86634">
        <ele>114.6</ele>
        <time>2023-10-23T17:19:37Z</time>
      </trkpt>
      <trkpt lat="46.77178" lon="-0.86622">
        <ele>114.2</ele>
        <time>2023-10-23T17:19:42Z</time>
      </trkpt>
      <trkpt lat="46.77198" lon="-0.86611">
        <ele>114.1</ele>
        <time>2023-10-23T17:19:48Z</time>
      </trkpt>
      <trkpt lat="46.77217" lon="-0.86601">
        <ele>114.2</ele>
        <time>2023-10-23T17:19:54Z</time>
      </trkpt>
      <trkpt lat="46.77235" lon="-0.8659">
        <ele>114.2</ele>
        <time>2023-10-23T17:20:00Z</time>
      </trkpt>
      <trkpt lat="46.77253" lon="-0.86581">
        <ele>114.1</ele>
        <time>2023-10-23T17:20:06Z</time>
      </trkpt>
      <trkpt lat="46.77271" lon="-0.86572">
        <ele>114.2</ele>
        <time>2023-10-23T17:20:12Z</time>
      </trkpt>
      <trkpt lat="46.77292" lon="-0.86564">
        <ele>114.5</ele>
        <time>2023-10-23T17:20:18Z</time>
      </trkpt>
      <trkpt lat="46.77312" lon="-0.86559">
        <ele>114.8</ele>
        <time>2023-10-23T17:20:24Z</time>
      </trkpt>
      <trkpt lat="46.77329" lon="-0.86554">
        <ele>115.1</ele>
        <time>2023-10-23T17:20:29Z</time>
      </trkpt>
      <trkpt lat="46.77347" lon="-0.86545">
        <ele>115.3</ele>
        <time>2023-10-23T17:20:35Z</time>
      </trkpt>
      <trkpt lat="46.77361" lon="-0.86528">
        <ele>115.6</ele>
        <time>2023-10-23T17:20:40Z</time>
      </trkpt>
      <trkpt lat="46.77374" lon="-0.86509">
        <ele>115.7</ele>
        <time>2023-10-23T17:20:45Z</time>
      </trkpt>
      <trkpt lat="46.77384" lon="-0.86482">
        <ele>115.8</ele>
        <time>2023-10-23T17:20:51Z</time>
      </trkpt>
      <trkpt lat="46.77387" lon="-0.86455">
        <ele>115.7</ele>
        <time>2023-10-23T17:20:56Z</time>
      </trkpt>
      <trkpt lat="46.77396" lon="-0.86432">
        <ele>115.4</ele>
        <time>2023-10-23T17:21:01Z</time>
      </trkpt>
      <trkpt lat="46.77413" lon="-0.86422">
        <ele>115.2</ele>
        <time>2023-10-23T17:21:06Z</time>
      </trkpt>
      <trkpt lat="46.77433" lon="-0.86423">
        <ele>115.1</ele>
        <time>2023-10-23T17:21:11Z</time>
      </trkpt>
      <trkpt lat="46.77451" lon="-0.86425">
        <ele>115.2</ele>
        <time>2023-10-23T17:21:16Z</time>
      </trkpt>
      <trkpt lat="46.77472" lon="-0.86426">
        <ele>115.6</ele>
        <time>2023-10-23T17:21:22Z</time>
      </trkpt>
      <trkpt lat="46.77491" lon="-0.86421">
        <ele>116.3</ele>
        <time>2023-10-23T17:21:28Z</time>
      </trkpt>
      <trkpt lat="46.77508" lon="-0.86407">
        <ele>117.6</ele>
        <time>2023-10-23T17:21:34Z</time>
      </trkpt>
      <trkpt lat="46.77522" lon="-0.8639">
        <ele>119.1</ele>
        <time>2023-10-23T17:21:40Z</time>
      </trkpt>
      <trkpt lat="46.77535" lon="-0.86369">
        <ele>120.8</ele>
        <time>2023-10-23T17:21:46Z</time>
      </trkpt>
      <trkpt lat="46.77547" lon="-0.86345">
        <ele>122.3</ele>
        <time>2023-10-23T17:21:52Z</time>
      </trkpt>
      <trkpt lat="46.7756" lon="-0.86321">
        <ele>123</ele>
        <time>2023-10-23T17:21:58Z</time>
      </trkpt>
      <trkpt lat="46.77571" lon="-0.86297">
        <ele>123.2</ele>
        <time>2023-10-23T17:22:04Z</time>
      </trkpt>
      <trkpt lat="46.77581" lon="-0.86272">
        <ele>123</ele>
        <time>2023-10-23T17:22:10Z</time>
      </trkpt>
      <trkpt lat="46.77588" lon="-0.86248">
        <ele>122.8</ele>
        <time>2023-10-23T17:22:16Z</time>
      </trkpt>
      <trkpt lat="46.77597" lon="-0.86222">
        <ele>122.4</ele>
        <time>2023-10-23T17:22:22Z</time>
      </trkpt>
      <trkpt lat="46.77607" lon="-0.86197">
        <ele>122.3</ele>
        <time>2023-10-23T17:22:28Z</time>
      </trkpt>
      <trkpt lat="46.77618" lon="-0.86175">
        <ele>122.7</ele>
        <time>2023-10-23T17:22:34Z</time>
      </trkpt>
      <trkpt lat="46.77634" lon="-0.86157">
        <ele>123.4</ele>
        <time>2023-10-23T17:22:40Z</time>
      </trkpt>
      <trkpt lat="46.77652" lon="-0.86146">
        <ele>124.5</ele>
        <time>2023-10-23T17:22:46Z</time>
      </trkpt>
      <trkpt lat="46.77671" lon="-0.86143">
        <ele>125.9</ele>
        <time>2023-10-23T17:22:52Z</time>
      </trkpt>
      <trkpt lat="46.7769" lon="-0.86149">
        <ele>127.1</ele>
        <time>2023-10-23T17:22:58Z</time>
      </trkpt>
      <trkpt lat="46.77708" lon="-0.86155">
        <ele>128.4</ele>
        <time>2023-10-23T17:23:04Z</time>
      </trkpt>
      <trkpt lat="46.77726" lon="-0.86157">
        <ele>130</ele>
        <time>2023-10-23T17:23:11Z</time>
      </trkpt>
      <trkpt lat="46.77733" lon="-0.8618">
        <ele>130.2</ele>
        <time>2023-10-23T17:23:18Z</time>
      </trkpt>
      <trkpt lat="46.77731" lon="-0.86209">
        <ele>130.1</ele>
        <time>2023-10-23T17:23:23Z</time>
      </trkpt>
      <trkpt lat="46.7773" lon="-0.86237">
        <ele>130</ele>
        <time>2023-10-23T17:23:28Z</time>
      </trkpt>
      <trkpt lat="46.77728" lon="-0.86264">
        <ele>130</ele>
        <time>2023-10-23T17:23:33Z</time>
      </trkpt>
      <trkpt lat="46.77727" lon="-0.86291">
        <ele>130</ele>
        <time>2023-10-23T17:23:38Z</time>
      </trkpt>
      <trkpt lat="46.77726" lon="-0.86318">
        <ele>130.1</ele>
        <time>2023-10-23T17:23:43Z</time>
      </trkpt>
      <trkpt lat="46.77726" lon="-0.86349">
        <ele>130.2</ele>
        <time>2023-10-23T17:23:49Z</time>
      </trkpt>
      <trkpt lat="46.77726" lon="-0.86377">
        <ele>130.2</ele>
        <time>2023-10-23T17:23:55Z</time>
      </trkpt>
      <trkpt lat="46.77725" lon="-0.86407">
        <ele>130.1</ele>
        <time>2023-10-23T17:24:01Z</time>
      </trkpt>
      <trkpt lat="46.77728" lon="-0.8643">
        <ele>129.8</ele>
        <time>2023-10-23T17:24:06Z</time>
      </trkpt>
      <trkpt lat="46.77744" lon="-0.86419">
        <ele>130.3</ele>
        <time>2023-10-23T17:24:11Z</time>
      </trkpt>
      <trkpt lat="46.77761" lon="-0.86403">
        <ele>130.8</ele>
        <time>2023-10-23T17:24:17Z</time>
      </trkpt>
      <trkpt lat="46.77779" lon="-0.86391">
        <ele>131.5</ele>
        <time>2023-10-23T17:24:23Z</time>
      </trkpt>
      <trkpt lat="46.77795" lon="-0.86379">
        <ele>132.2</ele>
        <time>2023-10-23T17:24:29Z</time>
      </trkpt>
      <trkpt lat="46.77812" lon="-0.86366">
        <ele>133</ele>
        <time>2023-10-23T17:24:35Z</time>
      </trkpt>
      <trkpt lat="46.77828" lon="-0.86352">
        <ele>133.6</ele>
        <time>2023-10-23T17:24:41Z</time>
      </trkpt>
      <trkpt lat="46.77844" lon="-0.86334">
        <ele>134.4</ele>
        <time>2023-10-23T17:24:47Z</time>
      </trkpt>
      <trkpt lat="46.7786" lon="-0.86315">
        <ele>135.2</ele>
        <time>2023-10-23T17:24:53Z</time>
      </trkpt>
      <trkpt lat="46.77875" lon="-0.86297">
        <ele>136.1</ele>
        <time>2023-10-23T17:24:59Z</time>
      </trkpt>
      <trkpt lat="46.77891" lon="-0.86281">
        <ele>137.1</ele>
        <time>2023-10-23T17:25:05Z</time>
      </trkpt>
      <trkpt lat="46.77907" lon="-0.86265">
        <ele>138.3</ele>
        <time>2023-10-23T17:25:11Z</time>
      </trkpt>
      <trkpt lat="46.77924" lon="-0.8625">
        <ele>139.4</ele>
        <time>2023-10-23T17:25:17Z</time>
      </trkpt>
      <trkpt lat="46.77941" lon="-0.86235">
        <ele>140.4</ele>
        <time>2023-10-23T17:25:23Z</time>
      </trkpt>
      <trkpt lat="46.77958" lon="-0.8622">
        <ele>141.1</ele>
        <time>2023-10-23T17:25:29Z</time>
      </trkpt>
      <trkpt lat="46.77974" lon="-0.86203">
        <ele>141.7</ele>
        <time>2023-10-23T17:25:35Z</time>
      </trkpt>
      <trkpt lat="46.7799" lon="-0.86186">
        <ele>142.3</ele>
        <time>2023-10-23T17:25:41Z</time>
      </trkpt>
      <trkpt lat="46.78006" lon="-0.8617">
        <ele>142.9</ele>
        <time>2023-10-23T17:25:47Z</time>
      </trkpt>
      <trkpt lat="46.78021" lon="-0.86153">
        <ele>143.5</ele>
        <time>2023-10-23T17:25:53Z</time>
      </trkpt>
      <trkpt lat="46.78038" lon="-0.86136">
        <ele>144</ele>
        <time>2023-10-23T17:25:59Z</time>
      </trkpt>
      <trkpt lat="46.78054" lon="-0.86118">
        <ele>144.4</ele>
        <time>2023-10-23T17:26:05Z</time>
      </trkpt>
      <trkpt lat="46.78069" lon="-0.86098">
        <ele>144.8</ele>
        <time>2023-10-23T17:26:11Z</time>
      </trkpt>
      <trkpt lat="46.78084" lon="-0.86079">
        <ele>145.3</ele>
        <time>2023-10-23T17:26:17Z</time>
      </trkpt>
      <trkpt lat="46.78099" lon="-0.86061">
        <ele>146</ele>
        <time>2023-10-23T17:26:23Z</time>
      </trkpt>
      <trkpt lat="46.78112" lon="-0.86044">
        <ele>146.8</ele>
        <time>2023-10-23T17:26:29Z</time>
      </trkpt>
      <trkpt lat="46.78127" lon="-0.86027">
        <ele>147.9</ele>
        <time>2023-10-23T17:26:35Z</time>
      </trkpt>
      <trkpt lat="46.78141" lon="-0.8601">
        <ele>148.9</ele>
        <time>2023-10-23T17:26:41Z</time>
      </trkpt>
      <trkpt lat="46.78157" lon="-0.8599">
        <ele>150</ele>
        <time>2023-10-23T17:26:48Z</time>
      </trkpt>
      <trkpt lat="46.78176" lon="-0.85988">
        <ele>151</ele>
        <time>2023-10-23T17:26:55Z</time>
      </trkpt>
      <trkpt lat="46.78195" lon="-0.86001">
        <ele>151.7</ele>
        <time>2023-10-23T17:27:01Z</time>
      </trkpt>
      <trkpt lat="46.78208" lon="-0.86019">
        <ele>151.8</ele>
        <time>2023-10-23T17:27:06Z</time>
      </trkpt>
      <trkpt lat="46.78215" lon="-0.86045">
        <ele>151.4</ele>
        <time>2023-10-23T17:27:11Z</time>
      </trkpt>
      <trkpt lat="46.78217" lon="-0.86075">
        <ele>150.6</ele>
        <time>2023-10-23T17:27:16Z</time>
      </trkpt>
      <trkpt lat="46.78219" lon="-0.86105">
        <ele>150.1</ele>
        <time>2023-10-23T17:27:21Z</time>
      </trkpt>
      <trkpt lat="46.78228" lon="-0.86123">
        <ele>150.3</ele>
        <time>2023-10-23T17:27:26Z</time>
      </trkpt>
      <trkpt lat="46.78231" lon="-0.8612">
        <ele>150.6</ele>
        <time>2023-10-23T17:27:28Z</time>
      </trkpt>
      <trkpt lat="46.78226" lon="-0.86089">
        <ele>152</ele>
        <time>2023-10-23T17:27:34Z</time>
      </trkpt>
      <trkpt lat="46.78224" lon="-0.86059">
        <ele>153.4</ele>
        <time>2023-10-23T17:27:40Z</time>
      </trkpt>
      <trkpt lat="46.7822" lon="-0.86031">
        <ele>154.7</ele>
        <time>2023-10-23T17:27:46Z</time>
      </trkpt>
      <trkpt lat="46.78221" lon="-0.86003">
        <ele>155.6</ele>
        <time>2023-10-23T17:27:52Z</time>
      </trkpt>
      <trkpt lat="46.78221" lon="-0.85976">
        <ele>156.3</ele>
        <time>2023-10-23T17:27:58Z</time>
      </trkpt>
      <trkpt lat="46.78223" lon="-0.85948">
        <ele>156.8</ele>
        <time>2023-10-23T17:28:04Z</time>
      </trkpt>
      <trkpt lat="46.78224" lon="-0.85917">
        <ele>157.4</ele>
        <time>2023-10-23T17:28:10Z</time>
      </trkpt>
      <trkpt lat="46.78226" lon="-0.85886">
        <ele>157.7</ele>
        <time>2023-10-23T17:28:16Z</time>
      </trkpt>
      <trkpt lat="46.78232" lon="-0.85856">
        <ele>158</ele>
        <time>2023-10-23T17:28:22Z</time>
      </trkpt>
      <trkpt lat="46.78238" lon="-0.85831">
        <ele>158.4</ele>
        <time>2023-10-23T17:28:27Z</time>
      </trkpt>
      <trkpt lat="46.78242" lon="-0.85804">
        <ele>158.5</ele>
        <time>2023-10-23T17:28:32Z</time>
      </trkpt>
      <trkpt lat="46.78248" lon="-0.85773">
        <ele>158.3</ele>
        <time>2023-10-23T17:28:38Z</time>
      </trkpt>
      <trkpt lat="46.78249" lon="-0.85747">
        <ele>158.1</ele>
        <time>2023-10-23T17:28:43Z</time>
      </trkpt>
      <trkpt lat="46.78247" lon="-0.85716">
        <ele>158</ele>
        <time>2023-10-23T17:28:49Z</time>
      </trkpt>
      <trkpt lat="46.78244" lon="-0.85689">
        <ele>158</ele>
        <time>2023-10-23T17:28:54Z</time>
      </trkpt>
      <trkpt lat="46.7824" lon="-0.85663">
        <ele>158.1</ele>
        <time>2023-10-23T17:28:59Z</time>
      </trkpt>
      <trkpt lat="46.78235" lon="-0.85633">
        <ele>158.1</ele>
        <time>2023-10-23T17:29:05Z</time>
      </trkpt>
      <trkpt lat="46.7823" lon="-0.85603">
        <ele>157.8</ele>
        <time>2023-10-23T17:29:11Z</time>
      </trkpt>
      <trkpt lat="46.78225" lon="-0.85577">
        <ele>157.4</ele>
        <time>2023-10-23T17:29:16Z</time>
      </trkpt>
      <trkpt lat="46.78222" lon="-0.85551">
        <ele>156.5</ele>
        <time>2023-10-23T17:29:21Z</time>
      </trkpt>
      <trkpt lat="46.7822" lon="-0.85522">
        <ele>155.4</ele>
        <time>2023-10-23T17:29:27Z</time>
      </trkpt>
      <trkpt lat="46.78218" lon="-0.85495">
        <ele>154.3</ele>
        <time>2023-10-23T17:29:32Z</time>
      </trkpt>
      <trkpt lat="46.78214" lon="-0.85465">
        <ele>153</ele>
        <time>2023-10-23T17:29:38Z</time>
      </trkpt>
      <trkpt lat="46.78208" lon="-0.85435">
        <ele>151.4</ele>
        <time>2023-10-23T17:29:44Z</time>
      </trkpt>
      <trkpt lat="46.78203" lon="-0.8541">
        <ele>150.1</ele>
        <time>2023-10-23T17:29:49Z</time>
      </trkpt>
      <trkpt lat="46.78196" lon="-0.85381">
        <ele>148.5</ele>
        <time>2023-10-23T17:29:55Z</time>
      </trkpt>
      <trkpt lat="46.78189" lon="-0.85356">
        <ele>147</ele>
        <time>2023-10-23T17:30:00Z</time>
      </trkpt>
      <trkpt lat="46.78182" lon="-0.85331">
        <ele>145.5</ele>
        <time>2023-10-23T17:30:05Z</time>
      </trkpt>
      <trkpt lat="46.78173" lon="-0.85302">
        <ele>143.8</ele>
        <time>2023-10-23T17:30:11Z</time>
      </trkpt>
      <trkpt lat="46.78164" lon="-0.85278">
        <ele>142.2</ele>
        <time>2023-10-23T17:30:16Z</time>
      </trkpt>
      <trkpt lat="46.78154" lon="-0.85253">
        <ele>141.2</ele>
        <time>2023-10-23T17:30:21Z</time>
      </trkpt>
      <trkpt lat="46.78146" lon="-0.85228">
        <ele>140.3</ele>
        <time>2023-10-23T17:30:26Z</time>
      </trkpt>
      <trkpt lat="46.78141" lon="-0.85203">
        <ele>139.7</ele>
        <time>2023-10-23T17:30:31Z</time>
      </trkpt>
      <trkpt lat="46.78138" lon="-0.85175">
        <ele>139.2</ele>
        <time>2023-10-23T17:30:36Z</time>
      </trkpt>
      <trkpt lat="46.78134" lon="-0.85147">
        <ele>138.9</ele>
        <time>2023-10-23T17:30:41Z</time>
      </trkpt>
      <trkpt lat="46.78131" lon="-0.85121">
        <ele>138.9</ele>
        <time>2023-10-23T17:30:46Z</time>
      </trkpt>
      <trkpt lat="46.78124" lon="-0.85093">
        <ele>138.9</ele>
        <time>2023-10-23T17:30:52Z</time>
      </trkpt>
      <trkpt lat="46.78125" lon="-0.85086">
        <ele>138.5</ele>
        <time>2023-10-23T17:30:54Z</time>
      </trkpt>
      <trkpt lat="46.78145" lon="-0.85077">
        <ele>138.2</ele>
        <time>2023-10-23T17:31:00Z</time>
      </trkpt>
      <trkpt lat="46.78163" lon="-0.85074">
        <ele>138.4</ele>
        <time>2023-10-23T17:31:05Z</time>
      </trkpt>
      <trkpt lat="46.78183" lon="-0.85067">
        <ele>139.1</ele>
        <time>2023-10-23T17:31:11Z</time>
      </trkpt>
      <trkpt lat="46.78203" lon="-0.85062">
        <ele>139.9</ele>
        <time>2023-10-23T17:31:17Z</time>
      </trkpt>
      <trkpt lat="46.78221" lon="-0.85053">
        <ele>141.1</ele>
        <time>2023-10-23T17:31:23Z</time>
      </trkpt>
      <trkpt lat="46.78238" lon="-0.85044">
        <ele>142.4</ele>
        <time>2023-10-23T17:31:29Z</time>
      </trkpt>
      <trkpt lat="46.78256" lon="-0.85034">
        <ele>143.9</ele>
        <time>2023-10-23T17:31:36Z</time>
      </trkpt>
      <trkpt lat="46.78274" lon="-0.85026">
        <ele>145.5</ele>
        <time>2023-10-23T17:31:43Z</time>
      </trkpt>
      <trkpt lat="46.78293" lon="-0.85017">
        <ele>147.6</ele>
        <time>2023-10-23T17:31:50Z</time>
      </trkpt>
      <trkpt lat="46.78308" lon="-0.85001">
        <ele>150.2</ele>
        <time>2023-10-23T17:31:57Z</time>
      </trkpt>
      <trkpt lat="46.78322" lon="-0.8498">
        <ele>153.6</ele>
        <time>2023-10-23T17:32:05Z</time>
      </trkpt>
      <trkpt lat="46.78333" lon="-0.84959">
        <ele>155.6</ele>
        <time>2023-10-23T17:32:11Z</time>
      </trkpt>
      <trkpt lat="46.78347" lon="-0.84937">
        <ele>156.2</ele>
        <time>2023-10-23T17:32:17Z</time>
      </trkpt>
      <trkpt lat="46.7836" lon="-0.84913">
        <ele>155.8</ele>
        <time>2023-10-23T17:32:23Z</time>
      </trkpt>
      <trkpt lat="46.78371" lon="-0.84887">
        <ele>155.2</ele>
        <time>2023-10-23T17:32:29Z</time>
      </trkpt>
      <trkpt lat="46.78385" lon="-0.84865">
        <ele>155.4</ele>
        <time>2023-10-23T17:32:35Z</time>
      </trkpt>
      <trkpt lat="46.784" lon="-0.84849">
        <ele>156.6</ele>
        <time>2023-10-23T17:32:41Z</time>
      </trkpt>
      <trkpt lat="46.78419" lon="-0.84842">
        <ele>158.7</ele>
        <time>2023-10-23T17:32:49Z</time>
      </trkpt>
      <trkpt lat="46.78437" lon="-0.84831">
        <ele>161.7</ele>
        <time>2023-10-23T17:32:57Z</time>
      </trkpt>
      <trkpt lat="46.78449" lon="-0.84811">
        <ele>165.1</ele>
        <time>2023-10-23T17:33:06Z</time>
      </trkpt>
      <trkpt lat="46.78461" lon="-0.84789">
        <ele>168.5</ele>
        <time>2023-10-23T17:33:15Z</time>
      </trkpt>
      <trkpt lat="46.78471" lon="-0.84765">
        <ele>172</ele>
        <time>2023-10-23T17:33:23Z</time>
      </trkpt>
      <trkpt lat="46.78475" lon="-0.8474">
        <ele>175.1</ele>
        <time>2023-10-23T17:33:31Z</time>
      </trkpt>
      <trkpt lat="46.78469" lon="-0.84712">
        <ele>178</ele>
        <time>2023-10-23T17:33:39Z</time>
      </trkpt>
      <trkpt lat="46.78465" lon="-0.84685">
        <ele>179.9</ele>
        <time>2023-10-23T17:33:46Z</time>
      </trkpt>
      <trkpt lat="46.78461" lon="-0.84659">
        <ele>181.4</ele>
        <time>2023-10-23T17:33:52Z</time>
      </trkpt>
      <trkpt lat="46.78459" lon="-0.8463">
        <ele>183.2</ele>
        <time>2023-10-23T17:33:59Z</time>
      </trkpt>
      <trkpt lat="46.78468" lon="-0.84605">
        <ele>184.5</ele>
        <time>2023-10-23T17:34:06Z</time>
      </trkpt>
      <trkpt lat="46.7847" lon="-0.84584">
        <ele>184.8</ele>
        <time>2023-10-23T17:34:11Z</time>
      </trkpt>
      <trkpt lat="46.78454" lon="-0.8457">
        <ele>184.7</ele>
        <time>2023-10-23T17:34:17Z</time>
      </trkpt>
      <trkpt lat="46.78437" lon="-0.84556">
        <ele>184.8</ele>
        <time>2023-10-23T17:34:23Z</time>
      </trkpt>
      <trkpt lat="46.78419" lon="-0.84541">
        <ele>184.3</ele>
        <time>2023-10-23T17:34:29Z</time>
      </trkpt>
      <trkpt lat="46.78404" lon="-0.84522">
        <ele>183.6</ele>
        <time>2023-10-23T17:34:34Z</time>
      </trkpt>
      <trkpt lat="46.78392" lon="-0.84497">
        <ele>183.1</ele>
        <time>2023-10-23T17:34:40Z</time>
      </trkpt>
      <trkpt lat="46.78382" lon="-0.84474">
        <ele>182.7</ele>
        <time>2023-10-23T17:34:45Z</time>
      </trkpt>
      <trkpt lat="46.78372" lon="-0.8445">
        <ele>182.6</ele>
        <time>2023-10-23T17:34:51Z</time>
      </trkpt>
      <trkpt lat="46.78364" lon="-0.84425">
        <ele>183.2</ele>
        <time>2023-10-23T17:34:57Z</time>
      </trkpt>
      <trkpt lat="46.78358" lon="-0.84402">
        <ele>184.6</ele>
        <time>2023-10-23T17:35:03Z</time>
      </trkpt>
      <trkpt lat="46.78361" lon="-0.84393">
        <ele>185.3</ele>
        <time>2023-10-23T17:35:04Z</time>
      </trkpt>
      <trkpt lat="46.7837" lon="-0.84368">
        <ele>186.9</ele>
        <time>2023-10-23T17:35:12Z</time>
      </trkpt>
      <trkpt lat="46.78369" lon="-0.84361">
        <ele>187.1</ele>
        <time>2023-10-23T17:35:13Z</time>
      </trkpt>
      <trkpt lat="46.78358" lon="-0.84337">
        <ele>187.8</ele>
        <time>2023-10-23T17:35:20Z</time>
      </trkpt>
      <trkpt lat="46.78355" lon="-0.84323">
        <ele>188.7</ele>
        <time>2023-10-23T17:35:24Z</time>
      </trkpt>
      <trkpt lat="46.78361" lon="-0.84298">
        <ele>190.9</ele>
        <time>2023-10-23T17:35:32Z</time>
      </trkpt>
      <trkpt lat="46.78349" lon="-0.84273">
        <ele>192.3</ele>
        <time>2023-10-23T17:35:39Z</time>
      </trkpt>
      <trkpt lat="46.78336" lon="-0.84249">
        <ele>193.3</ele>
        <time>2023-10-23T17:35:46Z</time>
      </trkpt>
      <trkpt lat="46.78329" lon="-0.84224">
        <ele>193.9</ele>
        <time>2023-10-23T17:35:52Z</time>
      </trkpt>
      <trkpt lat="46.78329" lon="-0.84197">
        <ele>194.8</ele>
        <time>2023-10-23T17:35:59Z</time>
      </trkpt>
      <trkpt lat="46.78325" lon="-0.84166">
        <ele>196</ele>
        <time>2023-10-23T17:36:05Z</time>
      </trkpt>
      <trkpt lat="46.78321" lon="-0.84137">
        <ele>197.5</ele>
        <time>2023-10-23T17:36:11Z</time>
      </trkpt>
      <trkpt lat="46.78313" lon="-0.84113">
        <ele>198.3</ele>
        <time>2023-10-23T17:36:17Z</time>
      </trkpt>
      <trkpt lat="46.78298" lon="-0.84093">
        <ele>198.3</ele>
        <time>2023-10-23T17:36:24Z</time>
      </trkpt>
      <trkpt lat="46.78281" lon="-0.84087">
        <ele>196.9</ele>
        <time>2023-10-23T17:36:31Z</time>
      </trkpt>
      <trkpt lat="46.78269" lon="-0.84093">
        <ele>195.1</ele>
        <time>2023-10-23T17:36:35Z</time>
      </trkpt>
      <trkpt lat="46.78265" lon="-0.84089">
        <ele>194.4</ele>
        <time>2023-10-23T17:36:37Z</time>
      </trkpt>
      <trkpt lat="46.78255" lon="-0.84064">
        <ele>195.2</ele>
        <time>2023-10-23T17:36:43Z</time>
      </trkpt>
      <trkpt lat="46.78246" lon="-0.84041">
        <ele>196</ele>
        <time>2023-10-23T17:36:48Z</time>
      </trkpt>
      <trkpt lat="46.78236" lon="-0.84013">
        <ele>197.2</ele>
        <time>2023-10-23T17:36:53Z</time>
      </trkpt>
      <trkpt lat="46.78226" lon="-0.83988">
        <ele>198.4</ele>
        <time>2023-10-23T17:37:00Z</time>
      </trkpt>
      <trkpt lat="46.78216" lon="-0.83965">
        <ele>199.7</ele>
        <time>2023-10-23T17:37:06Z</time>
      </trkpt>
      <trkpt lat="46.78207" lon="-0.83942">
        <ele>201.2</ele>
        <time>2023-10-23T17:37:12Z</time>
      </trkpt>
      <trkpt lat="46.78196" lon="-0.8392">
        <ele>202.4</ele>
        <time>2023-10-23T17:37:18Z</time>
      </trkpt>
      <trkpt lat="46.78185" lon="-0.83911">
        <ele>202.7</ele>
        <time>2023-10-23T17:37:23Z</time>
      </trkpt>
      <trkpt lat="46.7817" lon="-0.83928">
        <ele>201.9</ele>
        <time>2023-10-23T17:37:28Z</time>
      </trkpt>
      <trkpt lat="46.78156" lon="-0.83952">
        <ele>201.3</ele>
        <time>2023-10-23T17:37:33Z</time>
      </trkpt>
      <trkpt lat="46.78144" lon="-0.83975">
        <ele>201.5</ele>
        <time>2023-10-23T17:37:38Z</time>
      </trkpt>
      <trkpt lat="46.7813" lon="-0.83994">
        <ele>202</ele>
        <time>2023-10-23T17:37:43Z</time>
      </trkpt>
      <trkpt lat="46.78117" lon="-0.84015">
        <ele>202.8</ele>
        <time>2023-10-23T17:37:49Z</time>
      </trkpt>
      <trkpt lat="46.78102" lon="-0.84033">
        <ele>203.5</ele>
        <time>2023-10-23T17:37:55Z</time>
      </trkpt>
      <trkpt lat="46.78084" lon="-0.84045">
        <ele>204</ele>
        <time>2023-10-23T17:38:01Z</time>
      </trkpt>
      <trkpt lat="46.78066" lon="-0.84058">
        <ele>204.7</ele>
        <time>2023-10-23T17:38:07Z</time>
      </trkpt>
      <trkpt lat="46.78048" lon="-0.84073">
        <ele>205.2</ele>
        <time>2023-10-23T17:38:13Z</time>
      </trkpt>
      <trkpt lat="46.78032" lon="-0.84087">
        <ele>204.7</ele>
        <time>2023-10-23T17:38:18Z</time>
      </trkpt>
      <trkpt lat="46.78013" lon="-0.84099">
        <ele>203.6</ele>
        <time>2023-10-23T17:38:24Z</time>
      </trkpt>
      <trkpt lat="46.77993" lon="-0.84095">
        <ele>202.4</ele>
        <time>2023-10-23T17:38:30Z</time>
      </trkpt>
      <trkpt lat="46.7798" lon="-0.84076">
        <ele>200.8</ele>
        <time>2023-10-23T17:38:36Z</time>
      </trkpt>
      <trkpt lat="46.77969" lon="-0.84054">
        <ele>199</ele>
        <time>2023-10-23T17:38:41Z</time>
      </trkpt>
      <trkpt lat="46.7796" lon="-0.84028">
        <ele>197.1</ele>
        <time>2023-10-23T17:38:46Z</time>
      </trkpt>
      <trkpt lat="46.77954" lon="-0.83999">
        <ele>195</ele>
        <time>2023-10-23T17:38:51Z</time>
      </trkpt>
      <trkpt lat="46.77946" lon="-0.83979">
        <ele>193.4</ele>
        <time>2023-10-23T17:38:55Z</time>
      </trkpt>
      <trkpt lat="46.77926" lon="-0.83983">
        <ele>192.9</ele>
        <time>2023-10-23T17:39:00Z</time>
      </trkpt>
      <trkpt lat="46.77907" lon="-0.83998">
        <ele>192.4</ele>
        <time>2023-10-23T17:39:05Z</time>
      </trkpt>
      <trkpt lat="46.7789" lon="-0.8401">
        <ele>191.7</ele>
        <time>2023-10-23T17:39:10Z</time>
      </trkpt>
      <trkpt lat="46.77874" lon="-0.84026">
        <ele>191.2</ele>
        <time>2023-10-23T17:39:15Z</time>
      </trkpt>
      <trkpt lat="46.77857" lon="-0.84039">
        <ele>190.1</ele>
        <time>2023-10-23T17:39:20Z</time>
      </trkpt>
      <trkpt lat="46.77842" lon="-0.84057">
        <ele>188.8</ele>
        <time>2023-10-23T17:39:25Z</time>
      </trkpt>
      <trkpt lat="46.77827" lon="-0.84078">
        <ele>187.5</ele>
        <time>2023-10-23T17:39:30Z</time>
      </trkpt>
      <trkpt lat="46.77815" lon="-0.84103">
        <ele>186.1</ele>
        <time>2023-10-23T17:39:35Z</time>
      </trkpt>
      <trkpt lat="46.77803" lon="-0.8413">
        <ele>184.7</ele>
        <time>2023-10-23T17:39:40Z</time>
      </trkpt>
      <trkpt lat="46.77795" lon="-0.84158">
        <ele>184</ele>
        <time>2023-10-23T17:39:45Z</time>
      </trkpt>
      <trkpt lat="46.77789" lon="-0.84186">
        <ele>183.3</ele>
        <time>2023-10-23T17:39:50Z</time>
      </trkpt>
      <trkpt lat="46.77786" lon="-0.84196">
        <ele>182.8</ele>
        <time>2023-10-23T17:39:51Z</time>
      </trkpt>
      <trkpt lat="46.77778" lon="-0.84223">
        <ele>181.6</ele>
        <time>2023-10-23T17:39:57Z</time>
      </trkpt>
      <trkpt lat="46.77767" lon="-0.84248">
        <ele>179.7</ele>
        <time>2023-10-23T17:40:02Z</time>
      </trkpt>
      <trkpt lat="46.77751" lon="-0.84268">
        <ele>177.6</ele>
        <time>2023-10-23T17:40:07Z</time>
      </trkpt>
      <trkpt lat="46.77732" lon="-0.84283">
        <ele>176.5</ele>
        <time>2023-10-23T17:40:12Z</time>
      </trkpt>
      <trkpt lat="46.77716" lon="-0.84302">
        <ele>175.1</ele>
        <time>2023-10-23T17:40:17Z</time>
      </trkpt>
      <trkpt lat="46.77704" lon="-0.84322">
        <ele>174</ele>
        <time>2023-10-23T17:40:22Z</time>
      </trkpt>
      <trkpt lat="46.77693" lon="-0.84336">
        <ele>173.2</ele>
        <time>2023-10-23T17:40:26Z</time>
      </trkpt>
      <trkpt lat="46.77675" lon="-0.8435">
        <ele>172.2</ele>
        <time>2023-10-23T17:40:32Z</time>
      </trkpt>
      <trkpt lat="46.77658" lon="-0.84369">
        <ele>171.2</ele>
        <time>2023-10-23T17:40:37Z</time>
      </trkpt>
      <trkpt lat="46.77641" lon="-0.84386">
        <ele>170.6</ele>
        <time>2023-10-23T17:40:42Z</time>
      </trkpt>
      <trkpt lat="46.77625" lon="-0.84404">
        <ele>170.1</ele>
        <time>2023-10-23T17:40:47Z</time>
      </trkpt>
      <trkpt lat="46.7761" lon="-0.84423">
        <ele>168.5</ele>
        <time>2023-10-23T17:40:52Z</time>
      </trkpt>
      <trkpt lat="46.77594" lon="-0.84443">
        <ele>167</ele>
        <time>2023-10-23T17:40:57Z</time>
      </trkpt>
      <trkpt lat="46.77579" lon="-0.84464">
        <ele>165.9</ele>
        <time>2023-10-23T17:41:02Z</time>
      </trkpt>
      <trkpt lat="46.77565" lon="-0.84482">
        <ele>164.9</ele>
        <time>2023-10-23T17:41:07Z</time>
      </trkpt>
      <trkpt lat="46.77549" lon="-0.84502">
        <ele>163.9</ele>
        <time>2023-10-23T17:41:12Z</time>
      </trkpt>
      <trkpt lat="46.77536" lon="-0.84523">
        <ele>163.7</ele>
        <time>2023-10-23T17:41:17Z</time>
      </trkpt>
      <trkpt lat="46.77528" lon="-0.84537">
        <ele>163.7</ele>
        <time>2023-10-23T17:41:20Z</time>
      </trkpt>
      <trkpt lat="46.77523" lon="-0.8455">
        <ele>163.6</ele>
        <time>2023-10-23T17:41:23Z</time>
      </trkpt>
      <trkpt lat="46.77517" lon="-0.84557">
        <ele>163.3</ele>
        <time>2023-10-23T17:41:25Z</time>
      </trkpt>
      <trkpt lat="46.77507" lon="-0.84566">
        <ele>162.1</ele>
        <time>2023-10-23T17:41:28Z</time>
      </trkpt>
      <trkpt lat="46.77503" lon="-0.84576">
        <ele>161.3</ele>
        <time>2023-10-23T17:41:30Z</time>
      </trkpt>
      <trkpt lat="46.77494" lon="-0.84602">
        <ele>159</ele>
        <time>2023-10-23T17:41:35Z</time>
      </trkpt>
      <trkpt lat="46.77484" lon="-0.84625">
        <ele>157.8</ele>
        <time>2023-10-23T17:41:40Z</time>
      </trkpt>
      <trkpt lat="46.77471" lon="-0.84647">
        <ele>156</ele>
        <time>2023-10-23T17:41:45Z</time>
      </trkpt>
      <trkpt lat="46.77458" lon="-0.8467">
        <ele>153.9</ele>
        <time>2023-10-23T17:41:50Z</time>
      </trkpt>
      <trkpt lat="46.77444" lon="-0.84692">
        <ele>152</ele>
        <time>2023-10-23T17:41:55Z</time>
      </trkpt>
      <trkpt lat="46.77429" lon="-0.84713">
        <ele>151</ele>
        <time>2023-10-23T17:42:00Z</time>
      </trkpt>
      <trkpt lat="46.77413" lon="-0.84731">
        <ele>149.9</ele>
        <time>2023-10-23T17:42:05Z</time>
      </trkpt>
      <trkpt lat="46.774" lon="-0.84753">
        <ele>149.2</ele>
        <time>2023-10-23T17:42:10Z</time>
      </trkpt>
      <trkpt lat="46.77396" lon="-0.84764">
        <ele>149</ele>
        <time>2023-10-23T17:42:12Z</time>
      </trkpt>
      <trkpt lat="46.77387" lon="-0.84791">
        <ele>148.8</ele>
        <time>2023-10-23T17:42:17Z</time>
      </trkpt>
      <trkpt lat="46.77382" lon="-0.84798">
        <ele>148</ele>
        <time>2023-10-23T17:42:19Z</time>
      </trkpt>
      <trkpt lat="46.77364" lon="-0.84813">
        <ele>146.9</ele>
        <time>2023-10-23T17:42:24Z</time>
      </trkpt>
      <trkpt lat="46.77354" lon="-0.84823">
        <ele>146.3</ele>
        <time>2023-10-23T17:42:27Z</time>
      </trkpt>
      <trkpt lat="46.77337" lon="-0.8484">
        <ele>145.3</ele>
        <time>2023-10-23T17:42:32Z</time>
      </trkpt>
      <trkpt lat="46.77324" lon="-0.84863">
        <ele>144.6</ele>
        <time>2023-10-23T17:42:37Z</time>
      </trkpt>
      <trkpt lat="46.77309" lon="-0.84883">
        <ele>143.6</ele>
        <time>2023-10-23T17:42:42Z</time>
      </trkpt>
      <trkpt lat="46.77295" lon="-0.84905">
        <ele>142.6</ele>
        <time>2023-10-23T17:42:47Z</time>
      </trkpt>
      <trkpt lat="46.77282" lon="-0.84926">
        <ele>141.7</ele>
        <time>2023-10-23T17:42:52Z</time>
      </trkpt>
      <trkpt lat="46.77268" lon="-0.84946">
        <ele>140.9</ele>
        <time>2023-10-23T17:42:57Z</time>
      </trkpt>
      <trkpt lat="46.77254" lon="-0.84967">
        <ele>140.2</ele>
        <time>2023-10-23T17:43:02Z</time>
      </trkpt>
      <trkpt lat="46.77241" lon="-0.84986">
        <ele>139.6</ele>
        <time>2023-10-23T17:43:07Z</time>
      </trkpt>
      <trkpt lat="46.77227" lon="-0.85007">
        <ele>139.1</ele>
        <time>2023-10-23T17:43:12Z</time>
      </trkpt>
      <trkpt lat="46.77214" lon="-0.85031">
        <ele>138.4</ele>
        <time>2023-10-23T17:43:17Z</time>
      </trkpt>
      <trkpt lat="46.77203" lon="-0.85057">
        <ele>137.8</ele>
        <time>2023-10-23T17:43:22Z</time>
      </trkpt>
      <trkpt lat="46.77195" lon="-0.85085">
        <ele>136.9</ele>
        <time>2023-10-23T17:43:27Z</time>
      </trkpt>
      <trkpt lat="46.77189" lon="-0.85114">
        <ele>136.1</ele>
        <time>2023-10-23T17:43:32Z</time>
      </trkpt>
      <trkpt lat="46.77181" lon="-0.8514">
        <ele>135.6</ele>
        <time>2023-10-23T17:43:37Z</time>
      </trkpt>
      <trkpt lat="46.77172" lon="-0.85162">
        <ele>135.4</ele>
        <time>2023-10-23T17:43:42Z</time>
      </trkpt>
      <trkpt lat="46.77159" lon="-0.85181">
        <ele>135.6</ele>
        <time>2023-10-23T17:43:47Z</time>
      </trkpt>
      <trkpt lat="46.77143" lon="-0.85195">
        <ele>136.2</ele>
        <time>2023-10-23T17:43:52Z</time>
      </trkpt>
      <trkpt lat="46.77126" lon="-0.85212">
        <ele>137.4</ele>
        <time>2023-10-23T17:43:58Z</time>
      </trkpt>
      <trkpt lat="46.77111" lon="-0.85233">
        <ele>138.8</ele>
        <time>2023-10-23T17:44:04Z</time>
      </trkpt>
      <trkpt lat="46.77094" lon="-0.85249">
        <ele>140.4</ele>
        <time>2023-10-23T17:44:10Z</time>
      </trkpt>
      <trkpt lat="46.77079" lon="-0.8527">
        <ele>141.8</ele>
        <time>2023-10-23T17:44:16Z</time>
      </trkpt>
      <trkpt lat="46.77066" lon="-0.85295">
        <ele>143.1</ele>
        <time>2023-10-23T17:44:22Z</time>
      </trkpt>
      <trkpt lat="46.77056" lon="-0.85318">
        <ele>143.7</ele>
        <time>2023-10-23T17:44:27Z</time>
      </trkpt>
      <trkpt lat="46.77046" lon="-0.85341">
        <ele>143.9</ele>
        <time>2023-10-23T17:44:32Z</time>
      </trkpt>
      <trkpt lat="46.77033" lon="-0.85365">
        <ele>143.9</ele>
        <time>2023-10-23T17:44:38Z</time>
      </trkpt>
      <trkpt lat="46.77017" lon="-0.85382">
        <ele>143.7</ele>
        <time>2023-10-23T17:44:44Z</time>
      </trkpt>
      <trkpt lat="46.77" lon="-0.85396">
        <ele>143.5</ele>
        <time>2023-10-23T17:44:49Z</time>
      </trkpt>
      <trkpt lat="46.76983" lon="-0.85407">
        <ele>143.3</ele>
        <time>2023-10-23T17:44:54Z</time>
      </trkpt>
      <trkpt lat="46.76967" lon="-0.85417">
        <ele>143</ele>
        <time>2023-10-23T17:44:59Z</time>
      </trkpt>
      <trkpt lat="46.76948" lon="-0.85432">
        <ele>142.9</ele>
        <time>2023-10-23T17:45:05Z</time>
      </trkpt>
      <trkpt lat="46.7693" lon="-0.85443">
        <ele>142.7</ele>
        <time>2023-10-23T17:45:10Z</time>
      </trkpt>
      <trkpt lat="46.76912" lon="-0.85455">
        <ele>142.6</ele>
        <time>2023-10-23T17:45:15Z</time>
      </trkpt>
      <trkpt lat="46.76896" lon="-0.85468">
        <ele>142.5</ele>
        <time>2023-10-23T17:45:20Z</time>
      </trkpt>
      <trkpt lat="46.76878" lon="-0.85478">
        <ele>142.5</ele>
        <time>2023-10-23T17:45:25Z</time>
      </trkpt>
      <trkpt lat="46.7686" lon="-0.8549">
        <ele>142.5</ele>
        <time>2023-10-23T17:45:30Z</time>
      </trkpt>
      <trkpt lat="46.76842" lon="-0.85502">
        <ele>142.4</ele>
        <time>2023-10-23T17:45:35Z</time>
      </trkpt>
      <trkpt lat="46.76823" lon="-0.85512">
        <ele>142.4</ele>
        <time>2023-10-23T17:45:40Z</time>
      </trkpt>
      <trkpt lat="46.76805" lon="-0.85525">
        <ele>142.3</ele>
        <time>2023-10-23T17:45:45Z</time>
      </trkpt>
      <trkpt lat="46.76786" lon="-0.85538">
        <ele>142</ele>
        <time>2023-10-23T17:45:50Z</time>
      </trkpt>
      <trkpt lat="46.7678" lon="-0.85558">
        <ele>141.8</ele>
        <time>2023-10-23T17:45:54Z</time>
      </trkpt>
      <trkpt lat="46.7679" lon="-0.85582">
        <ele>141.6</ele>
        <time>2023-10-23T17:45:58Z</time>
      </trkpt>
      <trkpt lat="46.768" lon="-0.8561">
        <ele>141</ele>
        <time>2023-10-23T17:46:03Z</time>
      </trkpt>
      <trkpt lat="46.7681" lon="-0.85636">
        <ele>140.2</ele>
        <time>2023-10-23T17:46:08Z</time>
      </trkpt>
      <trkpt lat="46.7682" lon="-0.85661">
        <ele>139.3</ele>
        <time>2023-10-23T17:46:13Z</time>
      </trkpt>
      <trkpt lat="46.76829" lon="-0.85687">
        <ele>138.4</ele>
        <time>2023-10-23T17:46:18Z</time>
      </trkpt>
      <trkpt lat="46.76839" lon="-0.85714">
        <ele>137.3</ele>
        <time>2023-10-23T17:46:23Z</time>
      </trkpt>
      <trkpt lat="46.76849" lon="-0.8574">
        <ele>136.1</ele>
        <time>2023-10-23T17:46:28Z</time>
      </trkpt>
      <trkpt lat="46.76858" lon="-0.85765">
        <ele>135</ele>
        <time>2023-10-23T17:46:33Z</time>
      </trkpt>
      <trkpt lat="46.76868" lon="-0.85791">
        <ele>133.7</ele>
        <time>2023-10-23T17:46:38Z</time>
      </trkpt>
      <trkpt lat="46.76878" lon="-0.85818">
        <ele>132.7</ele>
        <time>2023-10-23T17:46:43Z</time>
      </trkpt>
      <trkpt lat="46.7689" lon="-0.85845">
        <ele>131.8</ele>
        <time>2023-10-23T17:46:48Z</time>
      </trkpt>
      <trkpt lat="46.76901" lon="-0.85872">
        <ele>131.2</ele>
        <time>2023-10-23T17:46:53Z</time>
      </trkpt>
      <trkpt lat="46.76912" lon="-0.85898">
        <ele>131</ele>
        <time>2023-10-23T17:46:58Z</time>
      </trkpt>
      <trkpt lat="46.76923" lon="-0.85923">
        <ele>131.2</ele>
        <time>2023-10-23T17:47:03Z</time>
      </trkpt>
      <trkpt lat="46.76928" lon="-0.85931">
        <ele>131.4</ele>
        <time>2023-10-23T17:47:05Z</time>
      </trkpt>
      <trkpt lat="46.76937" lon="-0.85944">
        <ele>131.8</ele>
        <time>2023-10-23T17:47:09Z</time>
      </trkpt>
    </trkseg>
  </trk>
</gpx>